Time;durP1;ratioP1;P1;durP2;ratioP2;P2;SDS_P1;SDS_P2;PMS_P1;PMS_P2;Temp;Humidity;BMP_temperature;BMP_pressure;BME280_temperature;BME280_humidity;BME280_pressure;Samples;Min_cycle;Max_cycle;Signal;HPM_P1;HPM_P2
2023/04/03 00:04:33;;;;;;;7.50;1.60;;;;;;;-0.30;87.30;101661.14;214788;1287;97982;-85
2023/04/03 00:09:33;;;;;;;9.00;1.70;;;;;;;-0.34;87.57;101659.98;214080;1285;139425;-84
2023/04/03 00:14:34;;;;;;;6.80;1.80;;;;;;;-0.39;88.13;101658.27;214601;1285;139369;-85
2023/04/03 00:19:35;;;;;;;5.20;1.30;;;;;;;-0.44;88.18;101660.05;214104;1287;141073;-85
2023/04/03 00:24:35;;;;;;;12.30;2.20;;;;;;;-0.49;88.37;101663.47;214569;1290;138962;-85
2023/04/03 00:29:35;;;;;;;8.20;1.50;;;;;;;-0.53;88.44;101662.55;213788;1289;139157;-84
2023/04/03 00:34:36;;;;;;;10.20;1.70;;;;;;;-0.58;88.82;101662.08;214439;1286;97986;-85
2023/04/03 00:39:36;;;;;;;8.10;2.00;;;;;;;-0.62;89.15;101661.11;213702;1286;138851;-84
2023/04/03 00:44:36;;;;;;;5.20;1.70;;;;;;;-0.67;89.36;101665.98;214424;1289;139663;-85
2023/04/03 00:49:38;;;;;;;5.20;1.40;;;;;;;-0.72;89.70;101670.38;213906;1286;139494;-85
2023/04/03 00:54:42;;;;;;;8.70;1.90;;;;;;;-0.76;89.94;101671.47;214440;1289;139006;-85
2023/04/03 00:59:46;;;;;;;6.50;1.60;;;;;;;-0.79;90.01;101674.60;213872;1285;139225;-84
2023/04/03 01:04:47;;;;;;;7.30;1.80;;;;;;;-0.81;90.38;101672.01;214908;1285;98543;-85
2023/04/03 01:09:51;;;;;;;9.30;1.50;;;;;;;-0.86;90.60;101674.92;214069;1285;139251;-85
2023/04/03 01:14:58;;;;;;;5.30;1.40;;;;;;;-0.90;90.92;101675.05;214710;1285;139967;-85
2023/04/03 01:20:30;;;;;;;8.20;1.90;;;;;;;-0.92;91.04;101674.88;214171;1285;139498;-84
2023/04/03 01:25:30;;;;;;;4.60;1.30;;;;;;;-0.97;91.88;101677.96;214669;1285;139991;-85
2023/04/03 01:30:39;;;;;;;7.90;1.50;;;;;;;-1.00;91.56;101683.09;214031;1285;139802;-84
2023/04/03 01:35:39;;;;;;;5.90;1.60;;;;;;;-1.02;91.63;101683.36;214670;1285;138937;-84
2023/04/03 01:40:40;;;;;;;4.00;1.20;;;;;;;-1.05;91.81;101685.95;214190;1286;138995;-85
2023/04/03 01:45:40;;;;;;;5.60;1.10;;;;;;;-1.07;92.25;101691.63;214514;1286;139054;-85
2023/04/03 01:50:41;;;;;;;7.70;1.60;;;;;;;-1.09;92.41;101693.02;213885;1285;139318;-85
2023/04/03 01:55:42;;;;;;;5.40;2.10;;;;;;;-1.12;92.70;101697.89;214462;1285;139020;-84
2023/04/03 02:00:42;;;;;;;6.60;1.30;;;;;;;-1.16;92.87;101699.56;214010;1288;139352;-84
2023/04/03 02:05:43;;;;;;;5.00;1.50;;;;;;;-1.18;92.88;101700.38;214426;1288;138836;-84
2023/04/03 02:10:46;;;;;;;7.10;1.40;;;;;;;-1.21;93.01;101705.16;214030;1288;139488;-84
2023/04/03 02:15:47;;;;;;;8.40;1.80;;;;;;;-1.24;93.21;101710.99;214385;1289;139446;-83
2023/04/03 02:20:48;;;;;;;5.80;1.50;;;;;;;-1.27;93.47;101709.21;213861;1286;140147;-83
2023/04/03 02:25:49;;;;;;;9.20;1.50;;;;;;;-1.30;93.59;101713.04;214485;1289;138839;-83
2023/04/03 02:30:49;;;;;;;8.40;1.40;;;;;;;-1.34;93.62;101715.04;213857;1285;139051;-83
2023/04/03 02:35:55;;;;;;;4.50;1.40;;;;;;;-1.36;93.93;101718.00;214398;1289;139488;-83
2023/04/03 02:41:07;;;;;;;6.80;1.50;;;;;;;-1.39;94.18;101719.95;213944;1285;139253;-82
2023/04/03 02:46:07;;;;;;;6.40;1.60;;;;;;;-1.43;94.08;101726.89;214535;1285;98897;-82
2023/04/03 02:51:08;;;;;;;6.50;1.50;;;;;;;-1.46;94.28;101727.36;213857;1289;139509;-83
2023/04/03 02:56:08;;;;;;;3.60;1.20;;;;;;;-1.49;94.28;101731.14;214567;1285;138875;-82
2023/04/03 03:01:09;;;;;;;10.30;2.00;;;;;;;-1.54;94.27;101734.63;213972;1289;139063;-82
2023/04/03 03:06:12;;;;;;;5.50;1.20;;;;;;;-1.57;94.65;101731.06;214428;1285;139016;-83
2023/04/03 03:11:12;;;;;;;9.30;1.70;;;;;;;-1.60;94.62;101736.57;214085;1285;139181;-82
2023/04/03 03:16:13;;;;;;;4.60;1.20;;;;;;;-1.64;94.95;101740.76;214585;1289;99249;-82
2023/04/03 03:21:13;;;;;;;4.60;1.20;;;;;;;-1.67;95.28;101742.95;214069;1286;139217;-82
2023/04/03 03:26:14;;;;;;;4.60;1.10;;;;;;;-1.70;95.25;101749.47;214445;1285;139324;-82
2023/04/03 03:31:15;;;;;;;7.30;1.10;;;;;;;-1.73;95.49;101749.41;213981;1286;139814;-82
2023/04/03 03:36:15;;;;;;;3.90;1.20;;;;;;;-1.76;95.48;101748.96;214456;1285;138864;-82
2023/04/03 03:41:16;;;;;;;7.40;1.60;;;;;;;-1.79;95.48;101755.31;213986;1288;139355;-82
2023/04/03 03:46:16;;;;;;;9.10;2.20;;;;;;;-1.82;95.85;101760.00;214657;1291;99326;-82
2023/04/03 03:51:16;;;;;;;8.20;1.50;;;;;;;-1.86;96.17;101758.75;214051;1286;138901;-82
2023/04/03 03:56:17;;;;;;;6.30;1.50;;;;;;;-1.90;96.25;101760.34;214574;1286;139288;-81
2023/04/03 04:01:17;;;;;;;7.50;1.30;;;;;;;-1.91;96.35;101762.87;214057;1287;139078;-81
2023/04/03 04:06:18;;;;;;;4.90;1.10;;;;;;;-1.94;96.57;101757.79;214491;1285;138886;-81
2023/04/03 04:11:18;;;;;;;7.00;1.60;;;;;;;-1.96;96.95;101758.31;213738;1290;207863;-80
2023/04/03 04:16:19;;;;;;;8.30;1.30;;;;;;;-1.98;97.09;101760.46;214554;1289;98034;-81
2023/04/03 04:21:19;;;;;;;8.30;1.30;;;;;;;-1.99;97.11;101766.88;214011;1286;139078;-81
2023/04/03 04:26:20;;;;;;;9.40;2.10;;;;;;;-2.02;97.26;101771.77;214586;1285;139018;-81
2023/04/03 04:31:21;;;;;;;8.00;2.30;;;;;;;-2.02;97.53;101778.19;214012;1290;139644;-80
2023/04/03 04:36:22;;;;;;;7.00;2.20;;;;;;;-2.03;97.86;101778.40;214419;1285;138843;-81
2023/04/03 04:41:22;;;;;;;10.30;3.70;;;;;;;-2.04;97.94;101781.78;214060;1290;139483;-81
2023/04/03 04:46:23;;;;;;;10.30;3.00;;;;;;;-2.05;97.78;101785.56;214682;1285;98843;-81
2023/04/03 04:51:23;;;;;;;6.80;1.90;;;;;;;-2.05;98.10;101790.42;214029;1291;139980;-81
2023/04/03 04:56:25;;;;;;;12.00;2.80;;;;;;;-2.05;98.17;101791.98;214627;1288;139012;-81
2023/04/03 05:01:25;;;;;;;7.00;1.90;;;;;;;-2.04;98.37;101796.84;213983;1288;139166;-81
2023/04/03 05:06:26;;;;;;;7.60;2.10;;;;;;;-2.02;98.40;101800.41;214725;1289;139792;-81
2023/04/03 05:11:26;;;;;;;8.60;2.40;;;;;;;-2.01;98.79;101805.06;214143;1289;139632;-81
2023/04/03 05:16:27;;;;;;;15.40;2.90;;;;;;;-1.97;98.30;101811.29;214752;1286;98002;-83
2023/04/03 05:21:32;;;;;;;9.20;2.90;;;;;;;-1.93;98.95;101810.02;214187;1285;139117;-83
2023/04/03 05:26:32;;;;;;;7.10;2.20;;;;;;;-1.89;99.03;101805.02;214645;1285;138691;-80
2023/04/03 05:31:33;;;;;;;10.50;2.50;;;;;;;-1.84;99.00;101807.09;214143;1285;140570;-80
2023/04/03 05:36:33;;;;;;;7.30;1.80;;;;;;;-1.78;99.07;101815.40;214632;1289;139002;-80
2023/04/03 05:41:34;;;;;;;6.20;1.60;;;;;;;-1.71;99.08;101813.05;214104;1286;140024;-80
2023/04/03 05:46:35;;;;;;;10.80;1.80;;;;;;;-1.63;99.26;101817.90;214860;1288;99279;-80
2023/04/03 05:51:36;;;;;;;9.00;2.00;;;;;;;-1.53;99.30;101818.38;214713;1288;139320;-81
2023/04/03 05:56:36;;;;;;;8.30;1.50;;;;;;;-1.42;99.37;101819.02;215170;1285;139677;-80
2023/04/03 06:01:37;;;;;;;4.40;1.20;;;;;;;-1.31;99.19;101821.27;214615;1285;139503;-81
2023/04/03 06:06:51;;;;;;;7.00;1.50;;;;;;;-1.17;99.12;101819.55;214576;1286;139225;-81
2023/04/03 06:11:53;;;;;;;6.90;2.00;;;;;;;-0.99;98.63;101823.20;214065;1285;139481;-80
2023/04/03 06:16:53;;;;;;;5.10;1.20;;;;;;;-0.80;98.55;101825.36;214874;1290;98014;-79
2023/04/03 06:21:54;;;;;;;4.90;1.10;;;;;;;-0.66;98.54;101831.15;214185;1288;140162;-79
2023/04/03 06:26:55;;;;;;;6.50;1.70;;;;;;;-0.48;97.61;101837.02;214876;1288;139451;-80
2023/04/03 06:31:56;;;;;;;6.30;1.30;;;;;;;-0.32;97.61;101833.19;214066;1285;139590;-80
2023/04/03 06:36:56;;;;;;;7.90;1.60;;;;;;;-0.17;97.33;101837.12;214557;1288;139392;-81
2023/04/03 06:41:57;;;;;;;4.90;1.00;;;;;;;0.01;96.86;101836.79;214087;1285;139522;-81
2023/04/03 06:46:57;;;;;;;9.00;1.50;;;;;;;0.20;95.81;101842.45;214716;1286;138933;-81
2023/04/03 06:51:57;;;;;;;4.40;1.00;;;;;;;0.39;94.65;101842.08;214417;1285;139549;-83
2023/04/03 06:56:58;;;;;;;2.90;0.90;;;;;;;0.57;94.07;101848.66;214934;1288;139882;-82
2023/04/03 07:01:59;;;;;;;6.60;1.70;;;;;;;0.75;93.55;101856.34;214245;1285;138866;-81
2023/04/03 07:07:00;;;;;;;8.80;1.50;;;;;;;0.92;92.53;101860.73;214701;1285;138565;-81
2023/04/03 07:12:00;;;;;;;5.30;1.30;;;;;;;1.10;91.94;101865.67;214345;1285;138971;-82
2023/04/03 07:17:01;;;;;;;8.20;2.30;;;;;;;1.23;90.47;101873.30;214737;1288;138614;-84
2023/04/03 07:22:01;;;;;;;6.60;1.40;;;;;;;1.40;89.23;101879.91;214413;1286;139382;-83
2023/04/03 07:27:02;;;;;;;7.90;1.30;;;;;;;1.50;88.62;101885.55;215143;1288;138477;-84
2023/04/03 07:32:03;;;;;;;8.70;1.20;;;;;;;1.60;88.36;101894.44;214611;1285;139705;-85
2023/04/03 07:37:04;;;;;;;3.90;1.40;;;;;;;1.71;86.80;101893.54;214864;1288;138648;-84
2023/04/03 07:42:05;;;;;;;8.30;1.50;;;;;;;1.83;86.71;101897.20;214399;1285;138539;-84
2023/04/03 07:47:05;;;;;;;7.60;1.90;;;;;;;2.02;86.63;101901.22;214923;1286;138820;-84
2023/04/03 07:52:08;;;;;;;5.50;1.60;;;;;;;2.15;84.89;101899.67;214634;1288;139961;-82
2023/04/03 07:57:09;;;;;;;13.00;1.70;;;;;;;2.23;80.91;101903.70;216770;1285;138436;-84
2023/04/03 08:02:10;;;;;;;11.60;1.90;;;;;;;2.26;79.89;101907.27;215031;1285;140428;-84
2023/04/03 08:07:10;;;;;;;3.30;1.20;;;;;;;2.24;79.60;101909.13;215562;1288;139706;-85
2023/04/03 08:12:11;;;;;;;5.70;1.40;;;;;;;2.32;78.34;101911.06;214962;1284;139596;-86
2023/04/03 08:17:11;;;;;;;5.80;1.20;;;;;;;2.42;76.43;101917.41;215117;1285;138484;-87
2023/04/03 08:22:12;;;;;;;5.80;1.80;;;;;;;2.44;74.20;101919.52;214610;1286;140236;-86
2023/04/03 08:27:13;;;;;;;3.60;1.40;;;;;;;2.46;73.94;101926.67;214952;1286;138733;-85
2023/04/03 08:32:13;;;;;;;4.20;1.30;;;;;;;2.73;74.97;101921.92;214261;1288;139379;-85
2023/04/03 08:37:15;;;;;;;7.00;1.80;;;;;;;3.16;73.20;101914.89;214975;1288;138632;-86
2023/04/03 08:42:28;;;;;;;6.30;1.50;;;;;;;3.58;73.70;101915.13;214096;1286;138797;-87
2023/04/03 08:47:38;;;;;;;7.50;1.70;;;;;;;3.87;71.67;101916.96;214570;1291;139549;-86
2023/04/03 08:52:52;;;;;;;6.50;1.60;;;;;;;3.92;69.47;101921.23;214574;1288;139725;-84
2023/04/03 08:58:10;;;;;;;3.60;1.20;;;;;;;4.02;67.89;101918.37;214958;1289;138310;-84
2023/04/03 09:03:15;;;;;;;5.60;1.50;;;;;;;4.46;67.95;101913.45;214155;1288;138840;-85
2023/04/03 09:08:32;;;;;;;4.50;1.50;;;;;;;4.94;69.02;101911.92;214862;1288;138829;-85
2023/04/03 09:13:57;;;;;;;8.10;2.80;;;;;;;5.40;66.58;101916.84;214448;1285;139060;-84
2023/04/03 09:19:09;;;;;;;6.70;1.30;;;;;;;5.74;61.83;101913.06;214432;1289;139411;-87
2023/04/03 09:24:15;;;;;;;5.20;1.60;;;;;;;6.33;63.92;101913.77;214884;1285;138501;-86
2023/04/03 09:29:21;;;;;;;5.40;1.40;;;;;;;6.83;62.73;101903.98;214359;1288;138730;-85
2023/04/03 09:34:31;;;;;;;5.10;1.30;;;;;;;7.47;63.97;101902.89;214979;1285;112643;-87
2023/04/03 09:39:48;;;;;;;3.60;0.80;;;;;;;8.29;61.57;101908.09;214190;1285;138429;-87
2023/04/03 09:45:03;;;;;;;3.20;1.40;;;;;;;8.52;57.56;101905.56;214701;1291;138908;-87
2023/04/03 09:50:18;;;;;;;4.60;1.60;;;;;;;8.69;56.68;101905.11;214292;1288;138926;-87
2023/04/03 09:55:26;;;;;;;6.90;2.30;;;;;;;9.06;56.77;101899.83;215121;1285;138538;-88
2023/04/03 10:00:37;;;;;;;7.60;2.10;;;;;;;9.29;53.54;101898.33;214490;1285;138720;-88
2023/04/03 10:05:41;;;;;;;7.80;1.70;;;;;;;9.71;57.93;101893.97;214841;1285;137974;-89
2023/04/03 10:10:43;;;;;;;6.90;2.00;;;;;;;10.91;58.57;101892.08;214464;1286;138636;-91
2023/04/03 10:15:56;;;;;;;5.50;1.40;;;;;;;11.25;54.84;101892.59;214843;1289;138305;-88
2023/04/03 10:21:10;;;;;;;4.20;1.60;;;;;;;11.42;52.76;101880.76;214408;1289;138758;-86
2023/04/03 10:26:14;;;;;;;8.10;1.90;;;;;;;11.10;48.19;101883.41;214815;1291;138497;-87
2023/04/03 10:31:34;;;;;;;6.10;2.00;;;;;;;10.41;47.10;101881.59;214235;1286;139064;-85
2023/04/03 10:37:08;;;;;;;4.40;1.70;;;;;;;10.39;49.63;101877.40;214901;1288;139289;-90
2023/04/03 10:42:19;;;;;;;14.30;1.80;;;;;;;10.69;52.03;101881.58;214247;1285;139900;-89
2023/04/03 10:47:45;;;;;;;4.40;1.30;;;;;;;11.22;52.96;101871.21;214811;1291;138555;-89
2023/04/03 10:53:06;;;;;;;4.20;2.10;;;;;;;11.34;50.29;101869.25;214495;1291;138276;-86
2023/04/03 10:58:21;;;;;;;5.50;1.60;;;;;;;10.63;46.49;101871.61;214993;1288;98064;-87
2023/04/03 11:03:40;;;;;;;4.70;2.00;;;;;;;10.16;46.37;101866.15;214162;1291;139075;-86
2023/04/03 11:08:56;;;;;;;4.90;1.90;;;;;;;10.37;48.47;101870.27;214830;1288;137976;-86
2023/04/03 11:14:22;;;;;;;5.40;2.10;;;;;;;10.59;47.77;101865.52;214530;1285;138347;-87
2023/04/03 11:19:41;;;;;;;4.20;1.90;;;;;;;10.42;45.14;101863.21;214356;1289;138812;-87
2023/04/03 11:24:46;;;;;;;4.30;1.40;;;;;;;10.45;48.32;101849.10;214884;1286;138382;-88
2023/04/03 11:29:47;;;;;;;5.80;1.40;;;;;;;10.68;47.94;101848.37;214445;1285;138877;-86
2023/04/03 11:34:53;;;;;;;7.50;1.70;;;;;;;10.94;46.37;101839.39;214897;1288;97886;-86
2023/04/03 11:40:04;;;;;;;4.20;1.50;;;;;;;10.92;47.18;101838.94;214298;1285;138753;-87
2023/04/03 11:45:49;;;;;;;4.80;1.50;;;;;;;10.40;46.22;101840.34;214798;1285;138447;-85
2023/04/03 11:50:50;;;;;;;4.60;1.60;;;;;;;10.58;48.31;101834.56;214232;1288;138326;-86
2023/04/03 11:55:50;;;;;;;4.20;1.40;;;;;;;10.85;48.48;101835.77;214965;1286;138325;-86
2023/04/03 12:01:01;;;;;;;6.40;1.80;;;;;;;10.69;46.36;101830.20;214235;1285;138841;-90
2023/04/03 12:06:04;;;;;;;4.50;1.60;;;;;;;10.27;47.82;101832.48;214659;1288;138162;-89
2023/04/03 12:11:13;;;;;;;5.10;1.50;;;;;;;9.80;46.23;101839.88;214308;1285;138936;-88
2023/04/03 12:16:21;;;;;;;5.10;1.70;;;;;;;9.41;47.15;101839.27;215241;1289;106975;-86
2023/04/03 12:21:32;;;;;;;5.10;1.50;;;;;;;9.35;48.56;101819.83;215036;1290;138851;-85
2023/04/03 12:26:40;;;;;;;4.90;1.70;;;;;;;9.55;47.83;101814.94;215335;1288;137684;-88
2023/04/03 12:31:55;;;;;;;5.20;1.50;;;;;;;9.36;45.90;101821.79;214735;1285;138210;-89
2023/04/03 12:37:20;;;;;;;5.90;1.90;;;;;;;9.06;46.94;101816.41;215449;1292;138118;-87
2023/04/03 12:42:39;;;;;;;5.40;1.80;;;;;;;9.30;47.43;101808.95;214293;1286;138397;-87
2023/04/03 12:47:43;;;;;;;9.30;1.70;;;;;;;9.28;47.61;101815.09;214754;1289;138153;-86
2023/04/03 12:53:06;;;;;;;4.10;1.60;;;;;;;9.20;46.11;101815.21;214336;1291;137922;-86
2023/04/03 12:58:30;;;;;;;5.20;1.90;;;;;;;8.88;45.90;101814.91;215060;1289;98440;-86
2023/04/03 13:03:31;;;;;;;7.50;2.40;;;;;;;8.55;45.73;101818.34;214262;1289;138188;-86
2023/04/03 13:08:32;;;;;;;3.70;1.40;;;;;;;8.43;48.42;101822.59;214929;1291;137732;-90
2023/04/03 13:13:32;;;;;;;3.60;1.60;;;;;;;8.36;48.27;101819.58;214663;1288;138471;-88
2023/04/03 13:18:35;;;;;;;4.10;1.70;;;;;;;8.51;49.20;101804.61;215070;1289;138284;-86
2023/04/03 13:23:40;;;;;;;6.20;1.70;;;;;;;8.77;48.86;101803.33;214643;1288;138628;-88
2023/04/03 13:28:41;;;;;;;8.50;3.60;;;;;;;8.87;48.69;101807.73;215059;1291;107449;-91
2023/04/03 13:34:13;;;;;;;4.70;1.80;;;;;;;8.71;48.73;101815.95;214519;1288;137934;-87
2023/04/03 13:39:13;;;;;;;4.00;1.50;;;;;;;8.66;50.05;101818.00;214397;1288;138804;-87
2023/04/03 13:44:16;;;;;;;5.40;1.90;;;;;;;8.60;49.43;101813.98;215202;1289;138451;-85
2023/04/03 13:49:38;;;;;;;5.70;1.60;;;;;;;8.58;50.18;101805.91;214352;1286;139039;-87
2023/04/03 13:54:39;;;;;;;4.50;1.50;;;;;;;8.53;48.70;101806.67;214922;1288;137803;-88
2023/04/03 13:59:40;;;;;;;3.50;1.60;;;;;;;8.50;49.42;101804.78;214423;1286;139534;-91
2023/04/03 14:04:43;;;;;;;5.10;1.70;;;;;;;8.28;49.21;101800.06;215195;1286;98329;-89
2023/04/03 14:09:43;;;;;;;5.30;1.60;;;;;;;8.03;46.97;101796.65;214470;1288;137996;-88
2023/04/03 14:14:45;;;;;;;6.80;2.20;;;;;;;7.85;48.91;101787.11;215119;1289;138748;-89
2023/04/03 14:19:47;;;;;;;5.20;2.00;;;;;;;7.92;48.81;101789.91;214471;1289;138646;-86
2023/04/03 14:24:49;;;;;;;4.40;1.70;;;;;;;7.72;47.59;101803.84;214993;1285;137980;-88
2023/04/03 14:29:51;;;;;;;3.70;1.80;;;;;;;7.36;48.38;101806.50;214724;1286;139915;-87
2023/04/03 14:34:52;;;;;;;4.40;1.70;;;;;;;7.07;48.29;101804.23;215776;1291;104811;-88
2023/04/03 14:39:55;;;;;;;5.50;1.60;;;;;;;6.94;49.61;101797.58;214512;1289;138474;-87
2023/04/03 14:44:55;;;;;;;4.90;1.60;;;;;;;6.94;49.55;101797.16;214814;1289;137656;-87
2023/04/03 14:49:55;;;;;;;5.70;2.80;;;;;;;6.94;50.29;101794.63;214837;1286;139344;-87
2023/04/03 14:54:57;;;;;;;7.00;2.30;;;;;;;7.04;50.26;101790.51;215069;1286;137758;-86
2023/04/03 14:59:57;;;;;;;9.10;3.80;;;;;;;7.04;49.84;101794.91;214986;1289;138781;-86
2023/04/03 15:05:00;;;;;;;9.20;3.20;;;;;;;6.94;49.69;101800.92;215651;1286;97873;-87
2023/04/03 15:10:14;;;;;;;5.10;2.10;;;;;;;6.81;48.86;101799.58;214698;1286;137800;-86
2023/04/03 15:15:16;;;;;;;4.70;1.70;;;;;;;6.63;49.34;101791.13;214986;1288;138030;-86
2023/04/03 15:20:21;;;;;;;6.90;1.70;;;;;;;6.67;49.53;101788.27;214081;1289;138441;-87
2023/04/03 15:25:21;;;;;;;4.80;1.50;;;;;;;6.61;49.06;101788.08;214708;1286;138686;-87
2023/04/03 15:30:22;;;;;;;4.20;1.30;;;;;;;6.45;50.19;101788.42;214250;1285;138789;-87
2023/04/03 15:35:22;;;;;;;3.30;1.40;;;;;;;6.32;50.63;101788.98;214706;1285;137947;-86
2023/04/03 15:40:23;;;;;;;4.50;1.60;;;;;;;6.22;51.01;101796.00;214121;1285;138710;-87
2023/04/03 15:45:23;;;;;;;5.90;1.60;;;;;;;6.14;51.05;101790.55;214640;1288;137877;-86
2023/04/03 15:50:24;;;;;;;7.20;1.90;;;;;;;6.12;51.01;101789.92;214123;1285;138833;-87
2023/04/03 15:55:25;;;;;;;5.20;1.40;;;;;;;6.07;51.74;101793.61;214608;1285;138691;-86
2023/04/03 16:00:26;;;;;;;5.30;1.40;;;;;;;6.03;51.13;101796.41;214082;1285;139965;-87
2023/04/03 16:05:26;;;;;;;3.20;1.20;;;;;;;6.02;51.14;101797.95;214482;1285;138671;-86
2023/04/03 16:10:28;;;;;;;5.20;1.40;;;;;;;6.00;49.90;101796.88;214162;1285;212199;-88
2023/04/03 16:15:30;;;;;;;6.80;1.50;;;;;;;5.83;48.17;101796.38;214860;1287;137923;-85
2023/04/03 16:20:31;;;;;;;7.30;2.10;;;;;;;5.73;49.99;101803.00;214188;1286;138368;-87
2023/04/03 16:25:31;;;;;;;2.30;1.00;;;;;;;5.64;50.86;101801.30;214734;1288;137952;-89
2023/04/03 16:30:33;;;;;;;3.80;1.00;;;;;;;5.56;51.10;101801.79;214398;1285;139247;-86
2023/04/03 16:35:34;;;;;;;4.20;1.40;;;;;;;5.51;51.70;101798.95;216875;1288;137838;-86
2023/04/03 16:40:34;;;;;;;3.60;1.20;;;;;;;5.47;51.77;101801.11;217473;1285;138089;-86
2023/04/03 16:45:35;;;;;;;3.50;1.10;;;;;;;5.45;52.47;101799.34;218656;1285;137789;-85
2023/04/03 16:50:35;;;;;;;3.90;1.30;;;;;;;5.41;52.52;101799.97;218059;1286;138883;-85
2023/04/03 16:55:35;;;;;;;7.90;2.20;;;;;;;5.31;52.67;101801.52;218625;1285;138410;-87
2023/04/03 17:00:36;;;;;;;8.20;2.10;;;;;;;5.18;52.76;101796.30;218159;1285;138219;-85
2023/04/03 17:05:36;;;;;;;6.40;1.60;;;;;;;5.09;53.67;101799.52;218398;1285;138014;-85
2023/04/03 17:10:37;;;;;;;8.90;2.30;;;;;;;5.04;54.82;101798.16;217806;1285;138233;-85
2023/04/03 17:15:37;;;;;;;3.40;1.40;;;;;;;4.98;55.00;101802.08;218455;1286;138981;-86
2023/04/03 17:20:38;;;;;;;5.40;1.60;;;;;;;4.90;55.51;101806.48;217845;1285;138158;-87
2023/04/03 17:25:38;;;;;;;4.40;1.70;;;;;;;4.85;57.25;101811.84;218557;1285;137853;-86
2023/04/03 17:30:39;;;;;;;5.90;2.60;;;;;;;4.81;57.39;101814.69;218076;1285;138647;-86
2023/04/03 17:35:39;;;;;;;6.80;1.90;;;;;;;4.77;57.77;101815.45;218744;1284;137852;-85
2023/04/03 17:40:39;;;;;;;9.40;2.60;;;;;;;4.70;57.93;101819.36;218266;1285;138765;-85
2023/04/03 17:45:40;;;;;;;9.10;2.20;;;;;;;4.67;58.84;101822.47;218720;1285;138210;-87
2023/04/03 17:50:40;;;;;;;6.50;2.00;;;;;;;4.59;58.69;101821.48;218196;1285;138032;-85
2023/04/03 17:55:41;;;;;;;4.10;1.80;;;;;;;4.52;59.46;101824.85;218661;1285;138218;-85
2023/04/03 18:00:41;;;;;;;4.30;1.50;;;;;;;4.42;59.67;101819.31;218105;1285;139647;-87
2023/04/03 18:05:42;;;;;;;4.70;1.50;;;;;;;4.40;60.75;101817.67;218692;1285;137907;-86
2023/04/03 18:10:42;;;;;;;5.40;1.50;;;;;;;4.38;61.16;101821.09;218155;1285;140712;-86
2023/04/03 18:15:44;;;;;;;8.80;2.20;;;;;;;4.33;61.24;101825.38;218513;1285;138301;-86
2023/04/03 18:20:45;;;;;;;5.30;1.90;;;;;;;4.24;61.63;101825.23;216695;1285;138234;-85
2023/04/03 18:25:45;;;;;;;6.80;2.10;;;;;;;4.13;61.54;101827.88;218467;1284;138589;-86
2023/04/03 18:30:46;;;;;;;6.90;2.10;;;;;;;4.04;61.48;101831.25;217830;1285;138472;-85
2023/04/03 18:35:46;;;;;;;3.90;1.40;;;;;;;3.98;62.24;101833.45;218685;1285;138416;-85
2023/04/03 18:40:48;;;;;;;7.00;1.70;;;;;;;3.93;62.69;101836.14;218283;1285;138077;-86
2023/04/03 18:45:49;;;;;;;6.00;2.00;;;;;;;3.84;62.80;101834.71;218536;1285;138178;-85
2023/04/03 18:50:49;;;;;;;5.80;1.80;;;;;;;3.73;63.09;101836.45;218146;1285;138582;-85
2023/04/03 18:55:50;;;;;;;5.50;1.80;;;;;;;3.65;63.92;101832.48;218786;1285;137858;-85
2023/04/03 19:00:50;;;;;;;7.20;2.00;;;;;;;3.56;64.33;101832.89;218247;1285;138562;-86
2023/04/03 19:05:50;;;;;;;10.20;2.20;;;;;;;3.50;65.00;101833.55;218752;1285;137986;-85
2023/04/03 19:10:51;;;;;;;6.30;2.60;;;;;;;3.43;65.13;101824.39;218123;1285;138217;-85
2023/04/03 19:15:53;;;;;;;6.80;2.00;;;;;;;3.35;65.64;101827.62;218741;1285;138400;-86
2023/04/03 19:20:55;;;;;;;8.00;2.30;;;;;;;3.27;66.04;101829.09;218172;1285;138309;-86
2023/04/03 19:25:58;;;;;;;10.30;4.00;;;;;;;3.20;66.48;101832.52;218686;1285;137962;-86
2023/04/03 19:31:00;;;;;;;10.30;2.90;;;;;;;3.11;66.64;101833.52;218235;1285;138943;-86
2023/04/03 19:36:04;;;;;;;10.50;3.40;;;;;;;3.00;66.84;101831.10;218792;1283;139086;-86
2023/04/03 19:41:26;;;;;;;9.00;2.90;;;;;;;2.93;67.42;101835.89;218112;1285;138325;-87
2023/04/03 19:46:28;;;;;;;8.20;3.10;;;;;;;2.86;68.19;101840.93;218807;1285;105277;-88
2023/04/03 19:51:29;;;;;;;6.90;2.60;;;;;;;2.82;68.30;101839.45;218256;1285;138117;-90
2023/04/03 19:56:30;;;;;;;7.20;2.60;;;;;;;2.78;68.67;101841.91;218607;1285;138109;-88
2023/04/03 20:01:33;;;;;;;7.70;2.50;;;;;;;2.72;69.13;101846.59;217162;1285;138949;-88
2023/04/03 20:06:34;;;;;;;10.20;2.70;;;;;;;2.65;69.31;101844.02;218053;1284;138530;-89
2023/04/03 20:11:35;;;;;;;7.60;2.60;;;;;;;2.57;69.18;101848.45;218225;1285;138874;-89
2023/04/03 20:16:36;;;;;;;6.60;2.40;;;;;;;2.46;69.32;101847.06;218872;1285;96346;-88
2023/04/03 20:21:37;;;;;;;5.90;2.10;;;;;;;2.37;69.38;101843.03;218055;1285;137978;-89
2023/04/03 20:26:42;;;;;;;7.80;2.40;;;;;;;2.27;69.54;101839.71;218744;1285;137960;-88
2023/04/03 20:31:43;;;;;;;5.50;1.80;;;;;;;2.15;69.88;101843.69;218137;1284;139211;-89
2023/04/03 20:36:46;;;;;;;8.00;1.80;;;;;;;2.00;69.63;101848.13;218743;1285;138896;-89
2023/04/03 20:41:46;;;;;;;6.80;2.90;;;;;;;1.83;69.98;101849.52;218301;1285;138128;-89
2023/04/03 20:46:47;;;;;;;6.10;1.90;;;;;;;1.71;71.01;101853.77;218700;1284;96513;-89
2023/04/03 20:51:49;;;;;;;6.10;2.10;;;;;;;1.66;71.32;101847.66;218172;1285;139074;-89
2023/04/03 20:56:50;;;;;;;6.40;2.10;;;;;;;1.61;71.80;101844.55;218729;1285;138312;-89
2023/04/03 21:01:50;;;;;;;7.20;2.10;;;;;;;1.57;71.35;101844.10;218216;1285;139293;-89
2023/04/03 21:07:28;;;;;;;7.60;2.30;;;;;;;1.56;71.36;101844.92;218836;1285;138638;-89
2023/04/03 21:13:06;;;;;;;9.80;2.50;;;;;;;1.57;71.35;101843.61;217871;1285;139756;-90
2023/04/03 21:18:07;;;;;;;8.40;2.20;;;;;;;1.57;70.67;101842.36;218670;1285;139093;-90
2023/04/03 21:23:07;;;;;;;8.80;3.00;;;;;;;1.59;70.00;101841.85;218185;1285;139170;-89
2023/04/03 21:28:08;;;;;;;7.20;2.00;;;;;;;1.62;69.67;101837.48;218777;1285;96536;-88
2023/04/03 21:33:08;;;;;;;7.50;2.30;;;;;;;1.61;69.02;101837.66;218062;1285;139200;-90
2023/04/03 21:38:09;;;;;;;5.50;1.80;;;;;;;1.56;69.38;101838.90;218735;1285;138493;-89
2023/04/03 21:43:09;;;;;;;8.00;1.70;;;;;;;1.50;68.68;101845.17;217058;1285;139789;-90
2023/04/03 21:48:12;;;;;;;9.80;2.10;;;;;;;1.43;68.48;101850.23;218052;1285;138753;-89
2023/04/03 21:53:14;;;;;;;5.40;1.70;;;;;;;1.34;69.41;101847.14;218184;1285;140230;-89
2023/04/03 21:58:14;;;;;;;5.70;1.80;;;;;;;1.27;69.38;101852.02;218685;1285;96304;-90
2023/04/03 22:03:20;;;;;;;7.00;1.90;;;;;;;1.19;69.33;101852.76;218099;1285;138546;-87
2023/04/03 22:08:20;;;;;;;6.10;1.90;;;;;;;1.08;69.88;101852.17;218628;1288;138666;-89
2023/04/03 22:13:21;;;;;;;6.00;1.80;;;;;;;1.00;70.40;101850.92;218202;1285;140424;-88
2023/04/03 22:18:22;;;;;;;5.80;2.00;;;;;;;0.91;70.25;101854.11;218784;1285;138681;-88
2023/04/03 22:23:23;;;;;;;7.80;2.10;;;;;;;0.81;70.87;101855.02;218261;1285;139435;-88
2023/04/03 22:28:24;;;;;;;7.90;2.50;;;;;;;0.69;70.72;101848.78;218810;1285;97455;-87
2023/04/03 22:33:25;;;;;;;4.60;1.90;;;;;;;0.59;70.69;101851.27;218075;1288;139486;-88
2023/04/03 22:38:25;;;;;;;4.80;1.60;;;;;;;0.49;71.57;101855.95;218594;1285;138921;-87
2023/04/03 22:43:27;;;;;;;7.70;2.20;;;;;;;0.40;71.71;101852.89;218163;1285;138617;-87
2023/04/03 22:48:28;;;;;;;6.90;2.20;;;;;;;0.27;71.55;101852.92;218762;1285;140313;-88
2023/04/03 22:53:28;;;;;;;6.00;2.00;;;;;;;0.18;72.73;101848.77;218243;1285;140415;-88
2023/04/03 22:58:28;;;;;;;11.40;2.70;;;;;;;0.07;73.16;101848.89;218862;1285;96077;-88
2023/04/03 23:03:29;;;;;;;10.30;3.60;;;;;;;-0.02;73.72;101847.29;218153;1285;138579;-88
2023/04/03 23:08:30;;;;;;;9.60;3.20;;;;;;;-0.13;74.06;101858.61;218825;1285;138865;-88
2023/04/03 23:13:30;;;;;;;9.50;2.90;;;;;;;-0.25;74.68;101854.61;217968;1287;139548;-87